Time;durP1;ratioP1;P1;durP2;ratioP2;P2;SDS_P1;SDS_P2;PMS_P1;PMS_P2;Temp;Humidity;BMP_temperature;BMP_pressure;BME280_temperature;BME280_humidity;BME280_pressure;Samples;Min_cycle;Max_cycle;Signal;HPM_P1;HPM_P2
2022/07/04 00:01:46;;;;;;;2.10;1.37;;;25.00;57.90;;;25.31;41.00;98787.09;4973282;28;124276;-89
2022/07/04 00:04:12;;;;;;;3.30;1.50;;;24.90;58.30;;;25.23;40.97;98783.50;4981349;28;124721;-89
2022/07/04 00:06:39;;;;;;;6.27;1.80;;;24.80;58.40;;;25.19;41.36;98784.72;4988452;28;113908;-89
2022/07/04 00:09:05;;;;;;;3.10;1.50;;;24.70;58.70;;;25.11;41.25;98784.72;4977594;28;113122;-89
2022/07/04 00:11:32;;;;;;;1.73;1.50;;;24.70;58.80;;;25.06;41.13;98784.34;4976663;28;124027;-90
2022/07/04 00:13:59;;;;;;;2.67;1.60;;;24.60;58.80;;;25.04;41.48;98781.09;4980229;28;123026;-89
2022/07/04 00:16:26;;;;;;;1.30;1.20;;;24.60;59.00;;;25.02;41.51;98778.72;4984095;28;114571;-89
2022/07/04 00:18:52;;;;;;;1.80;1.20;;;24.60;59.10;;;25.02;41.42;98777.91;4982019;28;114283;-89
2022/07/04 00:21:19;;;;;;;2.67;1.60;;;24.60;59.10;;;25.02;41.37;98787.19;4983471;28;123361;-88
2022/07/04 00:23:46;;;;;;;3.00;1.50;;;24.60;59.00;;;25.03;41.55;98777.47;4977319;28;123813;-88
2022/07/04 00:26:12;;;;;;;1.83;1.40;;;24.60;59.10;;;25.03;41.58;98777.47;4982742;28;114241;-88
2022/07/04 00:28:39;;;;;;;4.50;1.80;;;24.60;59.20;;;25.03;41.55;98771.81;4982166;28;114315;-88
2022/07/04 00:31:06;;;;;;;3.73;1.60;;;24.60;59.20;;;25.06;41.63;98781.50;4976786;28;123906;-88
2022/07/04 00:33:34;;;;;;;1.73;1.37;;;24.70;59.20;;;25.08;41.57;98782.72;4976745;28;123079;-89
2022/07/04 00:36:00;;;;;;;1.87;1.57;;;24.70;59.20;;;25.06;41.44;98771.00;4974808;28;115241;-88
2022/07/04 00:38:28;;;;;;;2.33;1.47;;;24.70;59.20;;;25.04;41.38;98762.16;4982908;28;114878;-88
2022/07/04 00:40:54;;;;;;;3.00;1.40;;;24.60;59.00;;;25.03;41.51;98776.69;4975611;28;124134;-89
2022/07/04 00:43:26;;;;;;;1.60;1.50;;;24.70;59.20;;;25.00;41.50;98789.59;4969945;28;123429;-88
2022/07/04 00:45:53;;;;;;;2.80;1.70;;;24.70;59.10;;;24.98;41.36;98792.03;4976149;28;113713;-88
2022/07/04 00:48:20;;;;;;;1.77;1.20;;;24.60;59.10;;;24.97;41.51;98795.28;4979680;28;114058;-88
2022/07/04 00:50:49;;;;;;;1.57;1.37;;;24.60;59.20;;;24.94;41.50;98790.47;4976861;28;123327;-89
2022/07/04 00:53:34;;;;;;;2.77;1.40;;;24.60;60.00;;;24.87;41.32;98797.72;5002395;28;123351;-88
2022/07/04 00:56:02;;;;;;;3.47;1.63;;;24.50;59.20;;;24.87;41.54;98799.75;4996655;28;115200;-87
2022/07/04 00:58:30;;;;;;;5.00;1.40;;;24.50;59.40;;;24.82;41.84;98800.16;4990005;28;112930;-88
2022/07/04 01:00:56;;;;;;;4.67;1.40;;;24.40;59.70;;;24.77;41.83;98797.75;4986700;28;123884;-88
2022/07/04 01:03:23;;;;;;;2.20;1.60;;;24.30;59.70;;;24.72;41.97;98793.34;5005152;28;122286;-88
2022/07/04 01:05:51;;;;;;;2.00;1.53;;;24.30;59.90;;;24.66;41.91;98789.31;4982591;28;113626;-88
2022/07/04 01:08:17;;;;;;;2.03;1.30;;;24.30;60.00;;;24.62;42.07;98791.34;4981950;28;113414;-89
2022/07/04 01:10:44;;;;;;;3.50;1.60;;;24.20;59.90;;;24.58;41.80;98799.84;4976739;28;124585;-88
2022/07/04 01:13:20;;;;;;;3.50;1.70;;;24.20;60.00;;;24.53;42.25;98799.44;4974350;28;124090;-89
2022/07/04 01:15:47;;;;;;;1.83;1.50;;;24.10;60.30;;;24.44;42.41;98805.50;4980919;28;114423;-88
2022/07/04 01:18:14;;;;;;;2.43;1.40;;;24.00;60.20;;;24.37;42.47;98803.47;4980487;28;113130;-88
2022/07/04 01:20:40;;;;;;;4.23;1.70;;;24.00;60.50;;;24.31;42.28;98795.81;4972362;28;123178;-88
2022/07/04 01:23:07;;;;;;;1.93;1.60;;;23.90;60.70;;;24.27;43.00;98804.28;4986823;28;123775;-89
2022/07/04 01:25:33;;;;;;;3.70;1.90;;;23.90;60.90;;;24.24;42.75;98802.28;4973529;28;115098;-89
2022/07/04 01:28:00;;;;;;;7.73;1.50;;;23.90;61.00;;;24.24;43.17;98800.25;4983233;28;114556;-89
2022/07/04 01:30:28;;;;;;;3.97;1.50;;;23.80;61.10;;;24.21;42.95;98801.06;4977818;28;123581;-89
2022/07/04 01:32:55;;;;;;;3.43;1.47;;;23.80;61.50;;;24.15;43.25;98804.69;4977744;28;123821;-90
2022/07/04 01:35:22;;;;;;;2.63;1.50;;;23.70;61.50;;;24.08;43.23;98810.34;4971276;28;113734;-90
2022/07/04 01:37:49;;;;;;;2.67;1.80;;;23.60;61.70;;;24.03;43.26;98800.28;4986467;28;112958;-89
2022/07/04 01:40:16;;;;;;;6.03;1.30;;;23.60;61.80;;;23.99;43.32;98805.94;4985191;28;124161;-90
2022/07/04 01:42:43;;;;;;;2.23;1.70;;;23.60;62.10;;;23.98;43.55;98809.13;4970340;28;123853;-90
2022/07/04 01:45:10;;;;;;;1.53;1.27;;;23.50;62.20;;;23.94;43.61;98802.69;4977929;28;113546;-89
2022/07/04 01:47:40;;;;;;;6.97;1.70;;;23.50;62.20;;;23.95;43.63;98812.78;4978937;28;114982;-89
2022/07/04 01:50:12;;;;;;;2.63;1.70;;;23.50;62.40;;;23.97;43.62;98807.53;4980032;28;124499;-89
2022/07/04 01:52:40;;;;;;;3.47;1.57;;;23.50;62.40;;;23.98;43.67;98817.59;4984297;28;123894;-89
2022/07/04 01:55:11;;;;;;;5.17;1.80;;;23.60;62.40;;;23.99;43.59;98822.03;4962339;28;111794;-89
2022/07/04 01:57:38;;;;;;;6.10;1.80;;;23.60;62.40;;;23.98;43.55;98821.22;4982472;28;114021;-88
2022/07/04 02:02:52;;;;;;;2.53;1.70;;;23.60;62.50;;;23.94;43.76;98823.25;4981524;28;125141;-89
2022/07/04 02:05:19;;;;;;;2.80;1.50;;;23.50;62.70;;;23.90;44.06;98836.53;4978779;28;114134;-89
2022/07/04 02:07:46;;;;;;;3.00;1.50;;;23.50;62.90;;;23.85;43.82;98830.50;4990372;28;112715;-89
2022/07/04 02:10:12;;;;;;;3.43;1.70;;;23.40;63.00;;;23.84;43.72;98838.16;4981463;28;122415;-90
2022/07/04 02:15:24;;;;;;;1.63;1.10;;;23.40;63.20;;;23.84;43.92;98834.53;4982152;28;115693;-88
2022/07/04 02:17:50;;;;;;;2.90;1.33;;;23.40;63.20;;;23.84;44.00;98834.53;4973378;28;115167;-89
2022/07/04 02:20:17;;;;;;;5.03;1.50;;;23.40;63.30;;;23.80;44.26;98829.69;4975535;28;124574;-89
2022/07/04 02:22:44;;;;;;;3.67;2.17;;;23.40;63.40;;;23.80;44.12;98832.50;4980427;28;123168;-89
2022/07/04 02:25:11;;;;;;;2.93;1.37;;;23.40;63.50;;;23.76;44.14;98831.69;4983135;28;113671;-89
2022/07/04 02:27:37;;;;;;;1.90;1.60;;;23.30;63.60;;;23.70;44.18;98833.28;4980508;28;114420;-90
2022/07/04 02:30:26;;;;;;;3.13;1.90;;;23.20;63.80;;;23.65;44.13;98842.13;4978514;28;124092;-89
2022/07/04 02:32:52;;;;;;;7.43;1.87;;;23.20;64.00;;;23.56;43.95;98838.84;4926398;28;123527;-89
2022/07/04 02:35:19;;;;;;;2.63;1.90;;;23.10;64.10;;;23.49;44.40;98841.69;4916314;28;113439;-90
2022/07/04 02:37:45;;;;;;;2.13;1.50;;;23.00;64.00;;;23.45;44.50;98861.38;4931137;28;113979;-89
2022/07/04 02:40:12;;;;;;;3.87;1.50;;;23.00;64.10;;;23.41;44.59;98859.78;4929609;28;124023;-89
2022/07/04 02:42:38;;;;;;;2.20;1.50;;;23.00;64.30;;;23.36;44.66;98856.13;4926086;28;124044;-90
2022/07/04 02:45:06;;;;;;;1.97;1.40;;;23.00;64.30;;;23.35;44.69;98862.19;4929307;28;114212;-89
2022/07/04 02:47:34;;;;;;;3.70;1.73;;;22.90;64.40;;;23.32;45.00;98863.78;4930654;28;113519;-90
2022/07/04 02:50:04;;;;;;;1.63;1.30;;;22.90;64.60;;;23.29;44.93;98875.03;4926912;28;123997;-89
2022/07/04 02:52:31;;;;;;;1.93;1.60;;;22.80;64.80;;;23.23;45.00;98876.63;4913701;28;122814;-90
2022/07/04 02:54:58;;;;;;;3.33;1.60;;;22.70;65.00;;;23.18;44.97;98879.81;4926106;28;114208;-90
2022/07/04 02:57:25;;;;;;;2.37;1.40;;;22.70;65.00;;;23.12;45.21;98879.38;4925140;28;113201;-89
2022/07/04 02:59:52;;;;;;;7.03;1.50;;;22.70;65.40;;;23.07;45.22;98883.38;4924630;28;124184;-89
2022/07/04 03:02:18;;;;;;;4.93;1.53;;;22.60;65.40;;;23.04;45.43;98883.38;4928980;28;123850;-90
2022/07/04 03:04:45;;;;;;;1.50;1.33;;;22.60;65.50;;;23.02;45.47;98883.75;4928626;28;114440;-91
2022/07/04 03:07:11;;;;;;;1.40;1.27;;;22.60;65.70;;;23.01;45.59;98895.44;4927151;28;115100;-89
2022/07/04 03:09:37;;;;;;;5.27;1.90;;;22.50;65.70;;;22.99;45.60;98895.00;4944650;28;124145;-89
2022/07/04 03:12:05;;;;;;;5.57;1.57;;;22.50;66.10;;;22.91;45.70;98897.75;4976478;28;123870;-91
2022/07/04 03:14:32;;;;;;;3.60;1.40;;;22.40;66.20;;;22.86;45.86;98888.84;4990230;28;114535;-89
2022/07/04 03:16:58;;;;;;;2.20;1.50;;;22.40;66.40;;;22.82;45.95;98891.66;4985223;28;114094;-90
2022/07/04 03:19:25;;;;;;;2.30;1.53;;;22.40;66.50;;;22.79;46.04;98884.00;4977242;28;124352;-89
2022/07/04 03:21:51;;;;;;;5.17;1.90;;;22.40;66.60;;;22.78;46.15;98882.38;4975954;28;123876;-89
2022/07/04 03:24:18;;;;;;;4.53;1.50;;;22.30;66.80;;;22.74;46.06;98878.72;4985854;28;114260;-89
2022/07/04 03:26:44;;;;;;;4.87;1.73;;;22.30;67.00;;;22.69;46.35;98885.53;4973839;28;114113;-89
2022/07/04 03:29:10;;;;;;;3.40;1.97;;;22.20;67.40;;;22.62;46.26;98885.50;4984154;28;124416;-89
2022/07/04 03:31:37;;;;;;;2.70;1.53;;;22.20;67.50;;;22.58;46.64;98889.50;4980342;28;123032;-90
2022/07/04 03:34:04;;;;;;;3.80;1.47;;;22.10;67.70;;;22.53;46.58;98895.47;4993551;28;113652;-90
2022/07/04 03:36:30;;;;;;;4.00;1.80;;;22.10;68.00;;;22.46;46.85;98897.06;4985200;28;114275;-90
2022/07/04 03:38:57;;;;;;;2.40;1.80;;;22.00;68.10;;;22.41;47.27;98903.03;4984121;28;124548;-89
2022/07/04 03:41:23;;;;;;;6.40;1.77;;;22.00;68.50;;;22.38;46.95;98905.81;4985231;28;124270;-89
2022/07/04 03:43:50;;;;;;;3.17;1.60;;;21.90;68.70;;;22.32;47.39;98905.34;4979806;28;114205;-89
2022/07/04 03:46:16;;;;;;;4.53;1.70;;;21.90;68.90;;;22.27;47.59;98900.91;4996799;28;113327;-89
2022/07/04 03:48:43;;;;;;;2.87;1.63;;;21.80;69.10;;;22.23;47.83;98896.44;4987975;28;124098;-89
2022/07/04 03:51:12;;;;;;;5.27;1.73;;;21.80;69.30;;;22.20;47.66;98900.84;4986242;28;123828;-90
2022/07/04 03:53:39;;;;;;;3.10;2.00;;;21.80;69.50;;;22.18;47.55;98914.47;4964255;28;114646;-90
2022/07/04 03:56:05;;;;;;;2.53;1.67;;;21.70;69.60;;;22.16;47.63;98914.03;4988184;28;114977;-90
2022/07/04 03:58:32;;;;;;;2.07;1.60;;;21.70;70.00;;;22.12;47.64;98918.81;4983087;28;124069;-91
2022/07/04 04:00:58;;;;;;;1.57;1.23;;;21.70;70.00;;;22.10;47.94;98917.59;4979370;28;123614;-90
2022/07/04 04:06:10;;;;;;;2.10;1.20;;;21.60;70.30;;;22.03;48.21;98904.25;4974722;28;114491;-89
2022/07/04 04:08:36;;;;;;;3.53;1.90;;;21.60;70.50;;;22.02;47.85;98916.72;4976151;28;124849;-89
2022/07/04 04:11:04;;;;;;;2.20;1.50;;;21.60;70.70;;;21.99;48.01;98923.91;4978370;28;123183;-89
2022/07/04 04:13:30;;;;;;;3.17;1.70;;;21.50;70.80;;;21.99;48.02;98923.13;4973343;28;114244;-90
2022/07/04 04:15:57;;;;;;;6.60;1.83;;;21.50;71.00;;;21.97;48.07;98934.75;4973244;28;113113;-90
2022/07/04 04:18:23;;;;;;;2.93;1.80;;;21.50;71.20;;;21.94;48.19;98934.72;4973646;28;124009;-89
2022/07/04 04:20:50;;;;;;;4.87;2.10;;;21.50;71.30;;;21.92;47.99;98937.91;4974398;28;124417;-89
2022/07/04 04:23:17;;;;;;;2.77;1.60;;;21.50;71.30;;;21.90;48.38;98948.75;4980127;28;114428;-89
2022/07/04 04:25:44;;;;;;;3.43;1.80;;;21.40;71.60;;;21.87;48.46;98957.97;4969475;28;113239;-90
2022/07/04 04:28:10;;;;;;;4.53;1.50;;;21.40;71.70;;;21.84;48.56;98950.25;4981122;28;124131;-91
2022/07/04 04:30:37;;;;;;;3.40;1.60;;;21.30;72.00;;;21.80;48.42;98960.69;4980478;28;123816;-90
2022/07/04 04:33:03;;;;;;;2.80;1.60;;;21.30;72.10;;;21.78;48.42;98968.69;4976257;28;114424;-90
2022/07/04 04:35:30;;;;;;;3.77;1.43;;;21.30;72.30;;;21.75;48.48;98983.53;4985948;28;113735;-89
2022/07/04 04:37:56;;;;;;;2.70;1.90;;;21.20;72.20;;;21.76;48.71;98971.06;4984190;28;124216;-90
2022/07/04 04:40:23;;;;;;;1.77;1.43;;;21.30;72.30;;;21.79;48.52;98976.75;4989417;28;124075;-89
2022/07/04 04:42:49;;;;;;;2.97;1.63;;;21.30;72.40;;;21.84;48.62;98978.41;4979623;28;116050;-90
2022/07/04 04:45:16;;;;;;;5.63;1.70;;;21.40;72.50;;;21.90;48.35;98988.13;4986071;28;115661;-89
2022/07/04 04:47:43;;;;;;;2.80;1.40;;;21.40;72.50;;;21.95;48.24;98981.34;4981939;28;124209;-90
2022/07/04 04:50:11;;;;;;;3.13;1.70;;;21.50;72.50;;;21.99;48.07;98994.25;4985204;28;123038;-89
2022/07/04 04:52:39;;;;;;;3.20;1.60;;;21.50;72.50;;;22.04;48.35;98987.47;4983445;28;113864;-90
2022/07/04 04:55:06;;;;;;;2.30;1.83;;;21.50;72.40;;;22.07;48.05;98997.97;4980110;28;113563;-89
2022/07/04 04:57:34;;;;;;;2.80;1.80;;;21.60;72.30;;;22.11;47.92;99012.91;4975793;28;124131;-89
2022/07/04 05:00:04;;;;;;;3.40;1.70;;;21.60;72.30;;;22.11;47.64;99009.25;4983386;28;124228;-89
2022/07/04 05:02:30;;;;;;;2.77;1.87;;;21.50;72.10;;;22.10;47.72;98996.38;4991128;28;114357;-90
2022/07/04 05:04:57;;;;;;;1.97;1.60;;;21.60;72.10;;;22.09;47.32;99001.22;4980761;28;113969;-90
2022/07/04 05:07:23;;;;;;;2.50;1.60;;;21.60;71.90;;;22.06;47.38;99002.78;4986201;28;124289;-89
2022/07/04 05:09:50;;;;;;;2.80;1.50;;;21.60;71.90;;;22.08;47.63;99004.41;4971807;28;124302;-89
2022/07/04 05:12:17;;;;;;;4.47;1.50;;;21.60;71.90;;;22.05;47.13;99001.16;4973840;28;115354;-90
2022/07/04 05:14:43;;;;;;;1.53;1.27;;;21.50;71.80;;;22.02;47.33;98996.28;4979867;28;114063;-88
2022/07/04 05:17:10;;;;;;;2.77;1.50;;;21.50;71.80;;;22.01;47.33;98996.69;4980759;28;123975;-89
2022/07/04 05:19:36;;;;;;;2.03;1.40;;;21.50;71.80;;;22.02;47.41;99001.94;4974113;28;124454;-89
2022/07/04 05:22:03;;;;;;;2.20;1.30;;;21.50;71.90;;;22.01;47.24;99005.13;4976630;28;113479;-89
2022/07/04 05:24:29;;;;;;;2.70;1.77;;;21.50;71.90;;;22.05;47.60;99001.16;5000386;28;113032;-89
2022/07/04 05:26:56;;;;;;;1.67;1.43;;;21.50;71.90;;;22.10;47.28;99002.00;4976846;28;124534;-89
2022/07/04 05:29:22;;;;;;;4.43;1.50;;;21.60;71.90;;;22.13;46.96;98998.44;4970857;28;123866;-90
2022/07/04 05:31:49;;;;;;;2.23;2.03;;;21.60;71.80;;;22.15;46.96;98998.84;4984580;28;116151;-90
2022/07/04 05:34:18;;;;;;;3.60;1.63;;;21.60;71.80;;;22.16;47.08;99000.47;4983260;28;115237;-91
2022/07/04 05:36:45;;;;;;;2.87;1.50;;;21.60;71.70;;;22.15;47.30;98993.22;4997577;28;123739;-90
2022/07/04 05:39:12;;;;;;;2.40;1.70;;;21.60;71.80;;;22.19;47.10;98994.09;4998858;28;124874;-89
2022/07/04 05:41:39;;;;;;;2.70;1.60;;;21.60;71.90;;;22.24;47.27;98990.94;4995963;28;113878;-90
2022/07/04 05:44:05;;;;;;;3.57;1.70;;;21.70;72.00;;;22.31;47.18;98996.66;4974439;28;113460;-90
2022/07/04 05:46:32;;;;;;;5.80;1.40;;;21.70;72.00;;;22.39;46.95;98995.53;4972565;28;124037;-89
2022/07/04 05:49:01;;;;;;;2.07;1.10;;;21.80;72.00;;;22.44;46.51;98988.75;4980442;28;123276;-87
2022/07/04 05:51:29;;;;;;;2.20;1.73;;;21.80;71.80;;;22.49;46.64;98991.19;4976163;28;114159;-89
2022/07/04 05:53:56;;;;;;;3.33;1.80;;;21.80;71.60;;;22.54;46.40;98992.84;4978502;28;113288;-88
2022/07/04 05:56:23;;;;;;;2.30;1.60;;;21.90;71.50;;;22.59;46.10;98995.28;4978319;28;124096;-88
2022/07/04 05:58:50;;;;;;;1.60;1.40;;;21.90;71.40;;;22.66;45.75;98989.72;4991333;28;121782;-89
2022/07/04 06:01:16;;;;;;;1.83;1.40;;;22.00;71.20;;;22.75;46.09;98983.75;4991460;28;113957;-88
2022/07/04 06:03:43;;;;;;;3.07;1.50;;;22.10;71.20;;;22.82;45.78;98976.19;4989561;28;113402;-88
2022/07/04 06:06:09;;;;;;;2.50;1.70;;;22.10;70.90;;;22.86;45.61;98977.03;4988204;28;123326;-86
2022/07/04 06:08:36;;;;;;;1.50;1.40;;;22.20;70.70;;;22.87;45.57;98966.56;4979470;28;123079;-87
2022/07/04 06:11:03;;;;;;;4.17;1.70;;;22.20;70.60;;;22.86;45.32;98965.75;4976910;28;114015;-88
2022/07/04 06:13:30;;;;;;;3.70;2.00;;;22.20;70.50;;;22.87;45.70;98961.72;4978762;28;114275;-87
2022/07/04 06:15:56;;;;;;;3.13;1.53;;;22.20;70.70;;;22.85;45.95;98964.13;4984711;28;123404;-89
2022/07/04 06:18:23;;;;;;;1.83;1.40;;;22.20;70.90;;;22.84;45.61;98970.16;4981973;28;123869;-87
2022/07/04 06:20:50;;;;;;;2.67;1.60;;;22.20;70.90;;;22.84;45.70;98976.59;4975394;28;115672;-88
2022/07/04 06:23:17;;;;;;;2.90;1.50;;;22.20;70.80;;;22.85;45.86;98981.03;4974015;28;114873;-89
2022/07/04 06:25:43;;;;;;;2.53;1.80;;;22.20;70.90;;;22.87;46.00;98986.28;4976078;28;123661;-88
2022/07/04 06:28:13;;;;;;;2.50;1.80;;;21.50;70.20;;;22.90;45.76;98986.31;4968937;28;123255;-88
2022/07/04 06:30:40;;;;;;;3.43;1.70;;;22.30;70.90;;;22.98;45.75;98986.41;4976741;28;114315;-88
2022/07/04 06:33:07;;;;;;;6.03;1.57;;;22.40;70.90;;;23.05;45.71;98989.25;4980289;28;115629;-88
2022/07/04 06:35:45;;;;;;;3.20;1.30;;;22.40;70.80;;;23.11;45.38;98990.53;4971730;28;125197;-87
2022/07/04 06:38:18;;;;;;;4.70;1.73;;;22.50;70.70;;;23.13;45.51;98990.91;4976384;28;123855;-88
2022/07/04 06:40:45;;;;;;;2.37;1.60;;;22.50;70.80;;;23.18;45.21;98996.19;4987119;28;114083;-88
2022/07/04 06:43:12;;;;;;;1.87;1.33;;;22.50;70.80;;;23.25;45.22;98984.97;4978046;28;113990;-87
2022/07/04 06:45:39;;;;;;;5.93;1.47;;;22.50;70.60;;;23.31;44.92;98991.03;4973148;28;123491;-88
2022/07/04 06:48:07;;;;;;;3.37;1.70;;;22.60;70.30;;;23.34;44.62;98995.88;4980901;28;123783;-88
2022/07/04 06:50:34;;;;;;;5.93;1.70;;;22.60;70.10;;;23.35;44.71;99006.78;4979968;28;114769;-88
2022/07/04 06:53:06;;;;;;;3.40;1.30;;;22.60;69.80;;;23.34;44.77;99010.78;4972404;28;114795;-88
2022/07/04 06:55:42;;;;;;;2.47;1.70;;;22.70;70.00;;;23.37;44.89;98995.94;4989081;28;124288;-88
2022/07/04 06:58:09;;;;;;;5.10;1.73;;;22.70;70.00;;;23.39;44.91;98992.69;4983471;28;123802;-89
2022/07/04 07:00:35;;;;;;;2.10;1.40;;;22.80;70.10;;;23.47;44.86;98994.34;4981346;28;113486;-88
2022/07/04 07:03:04;;;;;;;4.40;1.67;;;22.90;70.10;;;23.54;44.68;98985.94;4997773;28;114549;-88
2022/07/04 07:05:31;;;;;;;1.77;1.67;;;22.90;69.80;;;23.60;44.42;98980.72;4988424;28;124650;-87
2022/07/04 07:07:58;;;;;;;2.20;1.47;;;23.00;69.60;;;23.66;44.10;98981.16;4970721;28;123986;-87
2022/07/04 07:10:26;;;;;;;3.30;1.70;;;23.00;69.50;;;23.72;44.20;98979.59;4971257;28;115332;-88
2022/07/04 07:12:52;;;;;;;4.43;1.60;;;23.10;69.50;;;23.77;44.24;98985.66;4971277;28;115235;-87
2022/07/04 07:15:19;;;;;;;3.20;1.60;;;23.10;69.40;;;23.79;43.97;98976.81;4971910;28;123665;-87
2022/07/04 07:17:46;;;;;;;8.63;1.60;;;23.20;69.00;;;23.78;44.19;98973.19;4988720;28;123332;-89
2022/07/04 07:20:13;;;;;;;3.37;1.67;;;23.20;68.90;;;23.81;43.98;98980.03;4988449;28;114368;-90
2022/07/04 07:22:42;;;;;;;6.33;1.47;;;23.20;68.90;;;23.83;43.91;98972.00;4980986;28;113872;-88
2022/07/04 07:25:10;;;;;;;2.87;1.70;;;23.20;69.00;;;23.87;43.90;98963.53;4977676;28;124507;-88
2022/07/04 07:27:38;;;;;;;2.73;1.73;;;23.20;69.00;;;23.93;43.88;98964.75;4977884;28;124165;-89
2022/07/04 07:30:05;;;;;;;2.20;1.53;;;23.30;68.90;;;23.97;43.70;98959.94;4981274;28;114401;-88
2022/07/04 07:32:32;;;;;;;3.20;1.57;;;23.40;68.60;;;24.00;43.82;98959.16;4985256;28;113688;-87
2022/07/04 07:34:59;;;;;;;2.97;1.67;;;23.40;68.60;;;24.02;43.66;98953.91;4980274;28;123314;-87
2022/07/04 07:37:26;;;;;;;1.63;1.40;;;23.40;68.40;;;24.01;43.28;98960.75;4982475;28;123739;-87
2022/07/04 07:39:52;;;;;;;3.90;1.57;;;23.50;68.30;;;24.04;43.73;98954.31;4983279;28;114379;-90
2022/07/04 07:42:19;;;;;;;2.43;1.60;;;23.50;68.30;;;24.04;43.52;98945.81;4981518;28;113342;-88
2022/07/04 07:44:46;;;;;;;6.90;1.50;;;23.50;68.40;;;24.05;43.61;98946.66;4974232;28;124362;-89
2022/07/04 07:47:15;;;;;;;2.73;1.60;;;23.50;68.30;;;24.05;43.78;98939.00;4982595;28;122972;-90
2022/07/04 07:49:43;;;;;;;1.57;1.40;;;23.50;68.40;;;24.07;43.86;98947.03;4985108;28;114722;-88
2022/07/04 07:52:10;;;;;;;8.03;1.77;;;23.50;68.80;;;24.08;44.01;98946.66;4966989;28;112233;-88
2022/07/04 07:54:39;;;;;;;4.43;1.87;;;23.50;69.00;;;24.15;44.19;98943.84;4980587;28;124145;-88
2022/07/04 07:57:05;;;;;;;3.43;1.90;;;23.50;69.20;;;24.22;44.13;98957.97;4981400;28;122864;-87
2022/07/04 07:59:34;;;;;;;4.93;1.57;;;23.60;69.10;;;24.31;43.92;98953.94;4981441;28;115284;-89
2022/07/04 08:02:00;;;;;;;3.13;1.67;;;23.70;69.20;;;24.34;43.50;98955.97;4983788;28;115355;-87
2022/07/04 08:04:40;;;;;;;9.40;1.63;;;23.70;68.70;;;24.32;43.75;98959.22;4977765;28;123562;-88
2022/07/04 08:07:12;;;;;;;3.77;1.40;;;23.70;68.40;;;24.33;43.47;98954.38;4990603;28;123890;-90
2022/07/04 08:09:39;;;;;;;2.63;1.40;;;23.70;68.40;;;24.35;43.46;98955.56;4984820;28;114159;-89
2022/07/04 08:12:08;;;;;;;2.90;1.63;;;23.80;68.30;;;24.39;43.38;98958.41;4987468;28;113805;-88
2022/07/04 08:14:35;;;;;;;2.30;1.67;;;23.80;69.00;;;24.41;43.75;98950.34;4983487;28;123349;-87
2022/07/04 08:17:03;;;;;;;2.27;1.60;;;23.90;68.60;;;24.42;43.63;98951.94;4966225;28;123809;-87
2022/07/04 08:19:30;;;;;;;8.03;1.90;;;23.80;68.50;;;24.43;43.49;98951.56;4978014;28;113355;-88
2022/07/04 08:21:56;;;;;;;3.90;1.50;;;23.80;68.60;;;24.41;43.34;98936.22;4979012;28;113939;-88
2022/07/04 08:24:23;;;;;;;11.60;1.70;;;23.80;68.50;;;24.38;43.75;98943.47;4972574;28;124050;-88
2022/07/04 08:26:49;;;;;;;4.87;1.87;;;23.80;68.60;;;24.37;43.72;98938.25;4971437;28;123906;-88
2022/07/04 08:29:16;;;;;;;2.43;1.30;;;23.70;68.70;;;24.35;43.68;98946.31;4982785;28;113695;-88
2022/07/04 08:31:42;;;;;;;4.83;1.70;;;23.80;68.80;;;24.35;43.71;98935.81;4978409;28;115087;-87
2022/07/04 08:34:09;;;;;;;3.30;1.63;;;23.80;68.80;;;24.39;43.84;98947.09;4970342;28;123503;-87
2022/07/04 08:36:36;;;;;;;2.30;1.63;;;23.80;68.70;;;24.41;43.65;98939.84;4975067;28;123497;-88
2022/07/04 08:39:03;;;;;;;2.80;1.70;;;23.90;68.60;;;24.45;43.87;98942.72;4979744;28;116675;-87
2022/07/04 08:41:37;;;;;;;3.57;1.67;;;23.90;68.70;;;24.47;43.45;98940.28;4979818;28;113968;-87
2022/07/04 08:44:07;;;;;;;7.80;2.07;;;23.90;68.60;;;24.47;43.67;98937.44;4988353;28;123127;-88
2022/07/04 08:46:38;;;;;;;3.80;1.40;;;23.90;68.40;;;24.46;43.78;98945.13;4985782;28;123857;-87
2022/07/04 08:49:15;;;;;;;5.97;2.30;;;23.90;68.50;;;24.49;43.46;98943.50;4981938;28;115507;-87
2022/07/04 08:52:02;;;;;;;3.83;1.80;;;23.90;68.30;;;24.51;43.13;98935.44;4985854;28;113989;-89
2022/07/04 09:00:06;;;;;;;2.10;1.53;;;24.10;68.00;;;24.57;43.11;98941.50;4986850;28;114347;-86
2022/07/04 09:02:34;;;;;;;3.00;1.80;;;24.00;67.80;;;24.58;42.84;98948.75;4980092;28;113639;-85
2022/07/04 09:05:00;;;;;;;2.27;1.70;;;24.00;67.60;;;24.58;43.30;98945.94;4991913;28;124563;-89
2022/07/04 09:07:28;;;;;;;4.80;1.73;;;24.00;67.80;;;24.63;43.53;98949.16;4979864;28;122900;-88
2022/07/04 09:09:58;;;;;;;1.60;1.50;;;24.10;67.80;;;24.69;42.65;98950.38;4974838;28;115385;-92
2022/07/04 09:12:24;;;;;;;2.87;1.73;;;24.10;67.80;;;24.79;42.95;98950.78;4983936;28;114163;-89
2022/07/04 09:14:52;;;;;;;4.13;1.40;;;24.20;67.90;;;24.87;42.74;98952.38;4974756;28;124035;-89
2022/07/04 09:17:21;;;;;;;4.73;2.33;;;24.30;67.90;;;24.90;42.79;98957.22;4982111;28;125547;-89
2022/07/04 09:20:18;;;;;;;3.50;1.73;;;24.30;68.30;;;24.92;42.90;98969.72;4962300;28;114199;-88
2022/07/04 09:22:46;;;;;;;3.80;1.97;;;24.30;68.00;;;25.02;42.86;98965.28;4972790;28;114228;-85
2022/07/04 09:25:14;;;;;;;2.33;1.53;;;24.40;67.80;;;25.10;42.45;98958.41;4971017;28;124102;-85
2022/07/04 09:27:58;;;;;;;2.83;1.83;;;24.50;67.70;;;25.16;41.94;98963.69;4968920;28;124271;-85
2022/07/04 09:30:27;;;;;;;4.80;2.17;;;24.50;67.00;;;25.14;42.19;98969.72;4974153;28;113976;-85
2022/07/04 09:33:00;;;;;;;7.03;2.20;;;24.50;66.80;;;25.19;41.89;98960.84;4972900;28;113992;-85
2022/07/04 09:35:31;;;;;;;1.57;1.43;;;24.60;66.70;;;25.24;41.69;98960.44;4975710;28;124070;-85
2022/07/04 09:38:03;;;;;;;3.93;2.00;;;24.70;66.50;;;25.20;41.22;98956.00;4976783;28;124697;-85
2022/07/04 09:43:25;;;;;;;4.10;2.03;;;24.50;65.80;;;25.12;41.80;98960.84;4988941;28;115574;-84
2022/07/04 09:45:59;;;;;;;4.47;1.80;;;24.50;66.10;;;25.16;41.71;98969.34;4968888;28;124127;-84
2022/07/04 09:48:46;;;;;;;5.13;2.00;;;24.50;66.20;;;25.23;41.83;98966.50;4982328;28;123891;-85
2022/07/04 09:51:12;;;;;;;4.50;1.93;;;24.60;66.20;;;25.28;41.93;98969.72;4989799;28;114496;-84
2022/07/04 09:53:43;;;;;;;5.20;1.80;;;24.70;66.30;;;25.38;41.96;98973.72;4991993;28;113829;-83
2022/07/04 09:56:09;;;;;;;3.27;1.90;;;24.80;66.30;;;25.48;41.24;98974.91;5001170;28;123704;-84
2022/07/04 09:58:36;;;;;;;4.80;2.07;;;24.90;66.10;;;25.53;41.00;98974.50;4976094;28;123624;-84
2022/07/04 10:01:02;;;;;;;2.80;2.00;;;24.90;65.10;;;25.53;40.92;98974.50;4990182;28;113503;-84
2022/07/04 10:03:34;;;;;;;2.00;1.80;;;24.90;64.90;;;25.54;40.50;98964.78;4972783;28;113531;-84
2022/07/04 10:06:17;;;;;;;5.20;1.70;;;24.90;64.60;;;25.56;40.36;98957.50;4984831;28;123902;-85
2022/07/04 10:08:44;;;;;;;2.70;1.90;;;25.00;64.50;;;25.63;40.48;98956.69;4971767;28;124259;-84
2022/07/04 10:11:11;;;;;;;2.77;1.60;;;25.10;64.30;;;25.69;40.29;98949.38;4978232;28;115166;-84
2022/07/04 10:13:40;;;;;;;7.57;2.13;;;25.10;64.40;;;25.77;40.44;98962.28;4982214;28;114096;-84
2022/07/04 10:16:07;;;;;;;3.77;1.70;;;25.10;64.20;;;25.83;40.25;98957.00;4987793;28;124275;-84
2022/07/04 10:18:35;;;;;;;1.87;1.60;;;25.20;64.30;;;25.88;39.90;98961.47;4974761;28;124071;-85
2022/07/04 10:21:01;;;;;;;5.90;1.97;;;25.30;64.10;;;25.90;39.14;98965.50;4976817;28;113893;-84
2022/07/04 10:23:37;;;;;;;4.67;1.83;;;25.30;62.20;;;25.91;38.68;98960.63;4972908;28;113773;-86
2022/07/04 10:26:03;;;;;;;3.30;1.83;;;25.30;61.90;;;25.90;39.06;98968.31;4967446;28;124032;-86
2022/07/04 10:28:32;;;;;;;4.13;1.47;;;25.30;62.10;;;25.86;38.74;98964.69;4974577;28;124072;-85
2022/07/04 10:31:00;;;;;;;5.80;1.80;;;25.30;61.80;;;25.86;39.06;98964.69;4982085;28;115284;-85
2022/07/04 10:33:30;;;;;;;3.30;1.87;;;25.30;62.30;;;25.92;39.90;98957.38;4983555;28;115081;-86